sensor_id;sensor_type;location;lat;lon;timestamp;temperature;humidity
33460;DHT22;19795;53.160;6.612;2023-07-31T03:45:24;15.00;99.90
33460;DHT22;19795;53.160;6.612;2023-07-31T03:52:46;15.10;99.90
33460;DHT22;19795;53.160;6.612;2023-07-31T03:55:12;15.10;99.90
33460;DHT22;19795;53.160;6.612;2023-07-31T03:57:38;15.10;99.90
33460;DHT22;19795;53.160;6.612;2023-07-31T04:00:04;15.10;99.90
33460;DHT22;19795;53.160;6.612;2023-07-31T04:02:29;15.20;99.90
33460;DHT22;19795;53.160;6.612;2023-07-31T04:04:55;15.00;99.90
33460;DHT22;19795;53.160;6.612;2023-07-31T04:07:21;15.10;99.90
33460;DHT22;19795;53.160;6.612;2023-07-31T04:09:46;15.10;99.90
33460;DHT22;19795;53.160;6.612;2023-07-31T04:12:12;15.10;99.90
33460;DHT22;19795;53.160;6.612;2023-07-31T04:14:37;15.20;99.90
33460;DHT22;19795;53.160;6.612;2023-07-31T04:17:03;15.20;99.90
33460;DHT22;19795;53.160;6.612;2023-07-31T04:19:29;15.20;99.90
33460;DHT22;19795;53.160;6.612;2023-07-31T04:21:54;15.20;99.90
33460;DHT22;19795;53.160;6.612;2023-07-31T04:24:20;15.20;99.90
33460;DHT22;19795;53.160;6.612;2023-07-31T04:26:50;15.30;99.90
33460;DHT22;19795;53.160;6.612;2023-07-31T04:29:16;15.30;99.90
33460;DHT22;19795;53.160;6.612;2023-07-31T04:31:42;15.30;99.90
33460;DHT22;19795;53.160;6.612;2023-07-31T04:34:07;15.20;99.90
33460;DHT22;19795;53.160;6.612;2023-07-31T04:36:34;15.30;99.90
33460;DHT22;19795;53.160;6.612;2023-07-31T04:39:00;15.30;99.90
33460;DHT22;19795;53.160;6.612;2023-07-31T04:41:26;15.30;99.90
33460;DHT22;19795;53.160;6.612;2023-07-31T04:43:52;15.30;99.90
33460;DHT22;19795;53.160;6.612;2023-07-31T04:46:17;15.30;99.90
33460;DHT22;19795;53.160;6.612;2023-07-31T04:48:43;15.30;99.90
33460;DHT22;19795;53.160;6.612;2023-07-31T04:51:09;15.30;99.90
33460;DHT22;19795;53.160;6.612;2023-07-31T04:53:35;15.30;99.90
33460;DHT22;19795;53.160;6.612;2023-07-31T04:56:01;15.30;99.90
33460;DHT22;19795;53.160;6.612;2023-07-31T04:58:26;15.30;99.90
33460;DHT22;19795;53.160;6.612;2023-07-31T05:00:52;15.30;99.90
33460;DHT22;19795;53.160;6.612;2023-07-31T05:03:18;15.30;99.90
33460;DHT22;19795;53.160;6.612;2023-07-31T05:05:43;15.30;99.90
33460;DHT22;19795;53.160;6.612;2023-07-31T05:08:09;15.30;99.90
33460;DHT22;19795;53.160;6.612;2023-07-31T05:10:35;15.30;99.90
33460;DHT22;19795;53.160;6.612;2023-07-31T05:13:00;15.30;99.90
33460;DHT22;19795;53.160;6.612;2023-07-31T05:15:26;15.30;99.90
33460;DHT22;19795;53.160;6.612;2023-07-31T05:17:52;15.30;99.90
33460;DHT22;19795;53.160;6.612;2023-07-31T05:20:17;15.30;99.90
33460;DHT22;19795;53.160;6.612;2023-07-31T05:22:43;15.30;99.90
33460;DHT22;19795;53.160;6.612;2023-07-31T05:25:09;15.40;99.90
33460;DHT22;19795;53.160;6.612;2023-07-31T05:27:34;15.40;99.90
33460;DHT22;19795;53.160;6.612;2023-07-31T05:30:00;15.40;99.90
33460;DHT22;19795;53.160;6.612;2023-07-31T05:32:26;15.40;99.90
33460;DHT22;19795;53.160;6.612;2023-07-31T05:34:52;15.50;99.90
33460;DHT22;19795;53.160;6.612;2023-07-31T05:37:19;15.60;99.90
33460;DHT22;19795;53.160;6.612;2023-07-31T05:39:45;15.60;99.90
33460;DHT22;19795;53.160;6.612;2023-07-31T05:42:10;15.60;99.90
33460;DHT22;19795;53.160;6.612;2023-07-31T05:44:36;15.60;99.90
33460;DHT22;19795;53.160;6.612;2023-07-31T05:47:02;15.60;99.90
33460;DHT22;19795;53.160;6.612;2023-07-31T05:49:27;15.60;99.90
33460;DHT22;19795;53.160;6.612;2023-07-31T05:51:53;15.60;99.90
33460;DHT22;19795;53.160;6.612;2023-07-31T05:54:19;15.60;99.90
33460;DHT22;19795;53.160;6.612;2023-07-31T05:56:45;15.60;99.90
33460;DHT22;19795;53.160;6.612;2023-07-31T05:59:12;15.60;99.90
33460;DHT22;19795;53.160;6.612;2023-07-31T06:01:39;15.60;99.90
33460;DHT22;19795;53.160;6.612;2023-07-31T06:04:05;15.70;99.90
33460;DHT22;19795;53.160;6.612;2023-07-31T06:06:31;15.70;99.90
33460;DHT22;19795;53.160;6.612;2023-07-31T06:08:56;15.80;99.90
33460;DHT22;19795;53.160;6.612;2023-07-31T06:11:23;15.90;99.90
33460;DHT22;19795;53.160;6.612;2023-07-31T06:13:48;15.90;99.90
33460;DHT22;19795;53.160;6.612;2023-07-31T06:16:15;16.10;99.90
33460;DHT22;19795;53.160;6.612;2023-07-31T06:18:42;16.10;99.90
33460;DHT22;19795;53.160;6.612;2023-07-31T06:21:09;16.10;99.90
33460;DHT22;19795;53.160;6.612;2023-07-31T06:23:35;16.20;99.90
33460;DHT22;19795;53.160;6.612;2023-07-31T06:26:00;16.20;99.90
33460;DHT22;19795;53.160;6.612;2023-07-31T06:28:30;16.20;99.90
33460;DHT22;19795;53.160;6.612;2023-07-31T06:30:57;16.30;99.90
33460;DHT22;19795;53.160;6.612;2023-07-31T06:33:23;16.40;99.90
33460;DHT22;19795;53.160;6.612;2023-07-31T06:35:48;16.60;99.90
33460;DHT22;19795;53.160;6.612;2023-07-31T06:38:14;16.90;99.90
33460;DHT22;19795;53.160;6.612;2023-07-31T06:40:40;16.90;99.90
33460;DHT22;19795;53.160;6.612;2023-07-31T06:43:06;17.00;99.90
33460;DHT22;19795;53.160;6.612;2023-07-31T06:45:35;17.20;99.90
33460;DHT22;19795;53.160;6.612;2023-07-31T06:48:02;17.30;99.90
33460;DHT22;19795;53.160;6.612;2023-07-31T06:50:31;17.30;99.90
33460;DHT22;19795;53.160;6.612;2023-07-31T06:52:57;17.60;99.90
33460;DHT22;19795;53.160;6.612;2023-07-31T06:55:24;17.70;99.90
33460;DHT22;19795;53.160;6.612;2023-07-31T06:57:53;18.10;99.90
33460;DHT22;19795;53.160;6.612;2023-07-31T07:00:20;18.10;99.90
33460;DHT22;19795;53.160;6.612;2023-07-31T07:02:46;17.90;99.90
33460;DHT22;19795;53.160;6.612;2023-07-31T07:05:16;17.90;99.90
33460;DHT22;19795;53.160;6.612;2023-07-31T07:07:48;17.80;99.90
33460;DHT22;19795;53.160;6.612;2023-07-31T07:10:15;17.80;99.90
33460;DHT22;19795;53.160;6.612;2023-07-31T07:12:43;17.80;99.90
33460;DHT22;19795;53.160;6.612;2023-07-31T07:15:09;17.80;99.90
33460;DHT22;19795;53.160;6.612;2023-07-31T07:17:35;17.80;99.90
33460;DHT22;19795;53.160;6.612;2023-07-31T07:20:01;17.70;99.90
33460;DHT22;19795;53.160;6.612;2023-07-31T07:22:27;17.60;99.90
33460;DHT22;19795;53.160;6.612;2023-07-31T07:24:53;17.40;99.90
33460;DHT22;19795;53.160;6.612;2023-07-31T07:27:19;17.30;99.90
33460;DHT22;19795;53.160;6.612;2023-07-31T07:29:45;17.40;99.90
33460;DHT22;19795;53.160;6.612;2023-07-31T07:32:11;17.30;99.90
33460;DHT22;19795;53.160;6.612;2023-07-31T07:34:37;17.30;99.90
33460;DHT22;19795;53.160;6.612;2023-07-31T07:37:03;17.30;99.90
33460;DHT22;19795;53.160;6.612;2023-07-31T07:39:29;17.20;99.90
33460;DHT22;19795;53.160;6.612;2023-07-31T07:41:54;17.20;99.90
33460;DHT22;19795;53.160;6.612;2023-07-31T07:44:20;17.20;99.90
33460;DHT22;19795;53.160;6.612;2023-07-31T07:46:46;17.20;99.90
33460;DHT22;19795;53.160;6.612;2023-07-31T07:49:11;17.10;99.90
33460;DHT22;19795;53.160;6.612;2023-07-31T07:51:37;17.20;99.90
33460;DHT22;19795;53.160;6.612;2023-07-31T07:54:03;17.30;99.90
33460;DHT22;19795;53.160;6.612;2023-07-31T07:56:29;17.20;99.90
33460;DHT22;19795;53.160;6.612;2023-07-31T07:58:58;17.30;99.90
33460;DHT22;19795;53.160;6.612;2023-07-31T08:01:23;17.50;99.90
33460;DHT22;19795;53.160;6.612;2023-07-31T08:03:50;17.20;99.90
33460;DHT22;19795;53.160;6.612;2023-07-31T08:06:15;17.30;99.90
33460;DHT22;19795;53.160;6.612;2023-07-31T08:08:41;17.20;99.90
33460;DHT22;19795;53.160;6.612;2023-07-31T08:11:07;17.30;99.90
33460;DHT22;19795;53.160;6.612;2023-07-31T08:13:36;17.10;99.90
33460;DHT22;19795;53.160;6.612;2023-07-31T08:16:04;17.20;99.90
33460;DHT22;19795;53.160;6.612;2023-07-31T08:18:31;17.20;99.90
33460;DHT22;19795;53.160;6.612;2023-07-31T08:21:04;17.40;99.90
33460;DHT22;19795;53.160;6.612;2023-07-31T08:23:30;17.40;99.90
33460;DHT22;19795;53.160;6.612;2023-07-31T08:25:56;17.60;99.90
33460;DHT22;19795;53.160;6.612;2023-07-31T08:28:21;17.60;99.90
33460;DHT22;19795;53.160;6.612;2023-07-31T08:30:47;17.90;99.90
33460;DHT22;19795;53.160;6.612;2023-07-31T08:33:13;18.30;99.90
33460;DHT22;19795;53.160;6.612;2023-07-31T08:35:38;18.50;99.90
33460;DHT22;19795;53.160;6.612;2023-07-31T08:38:04;18.20;99.90
33460;DHT22;19795;53.160;6.612;2023-07-31T08:40:29;18.20;99.90
33460;DHT22;19795;53.160;6.612;2023-07-31T08:42:56;18.30;99.90
33460;DHT22;19795;53.160;6.612;2023-07-31T08:45:22;18.40;99.90
33460;DHT22;19795;53.160;6.612;2023-07-31T08:47:50;18.60;99.90
33460;DHT22;19795;53.160;6.612;2023-07-31T09:28:05;18.50;99.90
33460;DHT22;19795;53.160;6.612;2023-07-31T09:30:45;18.60;99.90
33460;DHT22;19795;53.160;6.612;2023-07-31T09:33:11;18.60;99.90
33460;DHT22;19795;53.160;6.612;2023-07-31T09:35:39;18.60;99.90
33460;DHT22;19795;53.160;6.612;2023-07-31T09:38:24;18.70;99.90
33460;DHT22;19795;53.160;6.612;2023-07-31T09:44:19;18.50;99.90
33460;DHT22;19795;53.160;6.612;2023-07-31T09:46:50;18.40;99.90
33460;DHT22;19795;53.160;6.612;2023-07-31T09:49:16;18.50;99.90
33460;DHT22;19795;53.160;6.612;2023-07-31T09:51:42;18.70;99.90
33460;DHT22;19795;53.160;6.612;2023-07-31T09:54:15;18.90;99.90
33460;DHT22;19795;53.160;6.612;2023-07-31T09:56:45;19.00;99.90
33460;DHT22;19795;53.160;6.612;2023-07-31T09:59:19;19.10;99.90
33460;DHT22;19795;53.160;6.612;2023-07-31T10:01:46;19.30;99.90
33460;DHT22;19795;53.160;6.612;2023-07-31T10:04:12;19.20;99.90
33460;DHT22;19795;53.160;6.612;2023-07-31T10:06:40;18.90;99.90
33460;DHT22;19795;53.160;6.612;2023-07-31T10:09:08;19.00;99.90
33460;DHT22;19795;53.160;6.612;2023-07-31T10:11:46;18.90;99.90
33460;DHT22;19795;53.160;6.612;2023-07-31T10:14:20;18.90;99.90
33460;DHT22;19795;53.160;6.612;2023-07-31T10:16:46;18.90;99.90
33460;DHT22;19795;53.160;6.612;2023-07-31T10:19:12;19.00;99.90
33460;DHT22;19795;53.160;6.612;2023-07-31T10:21:38;19.10;99.90
33460;DHT22;19795;53.160;6.612;2023-07-31T10:24:04;19.10;99.90
33460;DHT22;19795;53.160;6.612;2023-07-31T10:26:35;19.00;99.90
33460;DHT22;19795;53.160;6.612;2023-07-31T10:29:03;19.00;99.90
33460;DHT22;19795;53.160;6.612;2023-07-31T10:31:30;19.10;99.90
33460;DHT22;19795;53.160;6.612;2023-07-31T10:33:58;19.00;99.90
33460;DHT22;19795;53.160;6.612;2023-07-31T10:36:29;19.00;99.90
33460;DHT22;19795;53.160;6.612;2023-07-31T10:38:58;18.90;99.90
33460;DHT22;19795;53.160;6.612;2023-07-31T10:41:33;19.00;99.90
33460;DHT22;19795;53.160;6.612;2023-07-31T10:44:01;18.80;99.90
33460;DHT22;19795;53.160;6.612;2023-07-31T10:46:30;18.80;99.90
33460;DHT22;19795;53.160;6.612;2023-07-31T10:49:00;18.80;99.90
33460;DHT22;19795;53.160;6.612;2023-07-31T10:51:34;18.90;99.90
33460;DHT22;19795;53.160;6.612;2023-07-31T10:54:16;19.40;99.90
33460;DHT22;19795;53.160;6.612;2023-07-31T10:56:46;20.20;99.90
33460;DHT22;19795;53.160;6.612;2023-07-31T10:59:15;21.50;99.90
33460;DHT22;19795;53.160;6.612;2023-07-31T11:01:56;21.90;99.90
33460;DHT22;19795;53.160;6.612;2023-07-31T11:04:28;22.20;96.50
33460;DHT22;19795;53.160;6.612;2023-07-31T11:07:01;22.50;79.40
33460;DHT22;19795;53.160;6.612;2023-07-31T11:09:34;22.50;19.90
33460;DHT22;19795;53.160;6.612;2023-07-31T11:12:00;22.20;1.00
33460;DHT22;19795;53.160;6.612;2023-07-31T11:14:28;22.10;1.00
33460;DHT22;19795;53.160;6.612;2023-07-31T11:16:54;21.70;43.50
33460;DHT22;19795;53.160;6.612;2023-07-31T11:19:23;21.50;28.40
33460;DHT22;19795;53.160;6.612;2023-07-31T11:21:49;20.90;83.20
33460;DHT22;19795;53.160;6.612;2023-07-31T11:24:16;20.90;81.90
33460;DHT22;19795;53.160;6.612;2023-07-31T11:26:54;21.30;99.90
33460;DHT22;19795;53.160;6.612;2023-07-31T11:29:20;21.90;95.70
33460;DHT22;19795;53.160;6.612;2023-07-31T11:31:56;22.40;43.30
33460;DHT22;19795;53.160;6.612;2023-07-31T11:34:24;22.40;1.00
33460;DHT22;19795;53.160;6.612;2023-07-31T11:36:55;22.40;2.70
33460;DHT22;19795;53.160;6.612;2023-07-31T11:39:42;22.20;1.00
33460;DHT22;19795;53.160;6.612;2023-07-31T11:42:18;22.20;1.00
33460;DHT22;19795;53.160;6.612;2023-07-31T11:44:44;21.90;1.00
33460;DHT22;19795;53.160;6.612;2023-07-31T11:47:13;21.90;1.00
33460;DHT22;19795;53.160;6.612;2023-07-31T11:49:39;22.20;1.00
33460;DHT22;19795;53.160;6.612;2023-07-31T11:52:05;22.40;1.00
33460;DHT22;19795;53.160;6.612;2023-07-31T11:54:31;22.40;1.00
33460;DHT22;19795;53.160;6.612;2023-07-31T11:56:59;21.90;1.00
33460;DHT22;19795;53.160;6.612;2023-07-31T11:59:27;21.50;1.00
33460;DHT22;19795;53.160;6.612;2023-07-31T12:01:56;21.50;26.00
33460;DHT22;19795;53.160;6.612;2023-07-31T12:04:24;21.20;38.20
33460;DHT22;19795;53.160;6.612;2023-07-31T12:07:08;20.60;82.50
33460;DHT22;19795;53.160;6.612;2023-07-31T12:09:55;19.90;99.90
33460;DHT22;19795;53.160;6.612;2023-07-31T12:12:30;19.80;99.90
33460;DHT22;19795;53.160;6.612;2023-07-31T12:14:55;19.70;99.90
33460;DHT22;19795;53.160;6.612;2023-07-31T12:17:21;19.50;99.90
33460;DHT22;19795;53.160;6.612;2023-07-31T12:19:51;19.50;99.90
33460;DHT22;19795;53.160;6.612;2023-07-31T12:22:49;19.80;99.90
33460;DHT22;19795;53.160;6.612;2023-07-31T12:25:17;20.50;99.90
33460;DHT22;19795;53.160;6.612;2023-07-31T12:28:09;20.50;99.90
33460;DHT22;19795;53.160;6.612;2023-07-31T12:30:38;20.30;99.90
33460;DHT22;19795;53.160;6.612;2023-07-31T12:33:15;20.30;99.90
33460;DHT22;19795;53.160;6.612;2023-07-31T12:35:44;19.90;99.90
33460;DHT22;19795;53.160;6.612;2023-07-31T12:41:25;19.50;99.90
33460;DHT22;19795;53.160;6.612;2023-07-31T12:43:52;19.50;99.90
33460;DHT22;19795;53.160;6.612;2023-07-31T12:46:18;19.60;99.90
33460;DHT22;19795;53.160;6.612;2023-07-31T12:48:43;19.60;99.90
33460;DHT22;19795;53.160;6.612;2023-07-31T12:51:09;19.80;99.90
33460;DHT22;19795;53.160;6.612;2023-07-31T12:53:40;19.80;99.90
33460;DHT22;19795;53.160;6.612;2023-07-31T12:56:13;19.80;99.90
33460;DHT22;19795;53.160;6.612;2023-07-31T12:58:44;20.00;99.90
33460;DHT22;19795;53.160;6.612;2023-07-31T13:01:10;20.10;99.90
33460;DHT22;19795;53.160;6.612;2023-07-31T13:03:36;20.10;99.90
33460;DHT22;19795;53.160;6.612;2023-07-31T13:06:05;20.00;99.90
33460;DHT22;19795;53.160;6.612;2023-07-31T13:08:33;20.00;99.90
33460;DHT22;19795;53.160;6.612;2023-07-31T13:10:59;19.80;99.90
33460;DHT22;19795;53.160;6.612;2023-07-31T13:13:25;19.70;99.90
33460;DHT22;19795;53.160;6.612;2023-07-31T13:15:59;19.70;99.90
33460;DHT22;19795;53.160;6.612;2023-07-31T13:18:49;19.80;99.90
33460;DHT22;19795;53.160;6.612;2023-07-31T13:21:31;20.00;99.90
33460;DHT22;19795;53.160;6.612;2023-07-31T13:24:07;20.00;99.90
33460;DHT22;19795;53.160;6.612;2023-07-31T13:26:33;20.00;99.90
33460;DHT22;19795;53.160;6.612;2023-07-31T13:29:01;20.10;99.90
33460;DHT22;19795;53.160;6.612;2023-07-31T13:31:29;20.20;99.90
33460;DHT22;19795;53.160;6.612;2023-07-31T13:34:04;20.50;99.90
33460;DHT22;19795;53.160;6.612;2023-07-31T13:36:32;20.70;99.90
33460;DHT22;19795;53.160;6.612;2023-07-31T13:38:59;21.00;99.90
33460;DHT22;19795;53.160;6.612;2023-07-31T13:41:26;21.20;90.90
33460;DHT22;19795;53.160;6.612;2023-07-31T13:43:52;21.10;78.20
33460;DHT22;19795;53.160;6.612;2023-07-31T13:46:17;21.10;93.10
33460;DHT22;19795;53.160;6.612;2023-07-31T13:48:43;21.10;74.90
33460;DHT22;19795;53.160;6.612;2023-07-31T13:51:09;20.90;65.40
33460;DHT22;19795;53.160;6.612;2023-07-31T13:53:34;20.70;46.30
33460;DHT22;19795;53.160;6.612;2023-07-31T13:56:03;20.70;79.90
33460;DHT22;19795;53.160;6.612;2023-07-31T13:58:28;20.50;99.90
33460;DHT22;19795;53.160;6.612;2023-07-31T14:00:54;20.40;99.90
33460;DHT22;19795;53.160;6.612;2023-07-31T14:03:20;20.50;99.90
33460;DHT22;19795;53.160;6.612;2023-07-31T14:05:46;21.00;99.90
33460;DHT22;19795;53.160;6.612;2023-07-31T14:08:16;21.70;99.90
33460;DHT22;19795;53.160;6.612;2023-07-31T14:10:42;21.90;82.20
33460;DHT22;19795;53.160;6.612;2023-07-31T14:13:10;22.00;1.00
33460;DHT22;19795;53.160;6.612;2023-07-31T14:15:42;21.90;1.00
33460;DHT22;19795;53.160;6.612;2023-07-31T14:18:11;21.80;1.00
33460;DHT22;19795;53.160;6.612;2023-07-31T14:20:39;21.50;1.00
33460;DHT22;19795;53.160;6.612;2023-07-31T14:23:05;21.20;46.00
33460;DHT22;19795;53.160;6.612;2023-07-31T14:25:54;20.80;66.50
33460;DHT22;19795;53.160;6.612;2023-07-31T14:31:21;20.50;96.00
33460;DHT22;19795;53.160;6.612;2023-07-31T14:33:49;20.60;74.00
33460;DHT22;19795;53.160;6.612;2023-07-31T14:36:34;20.80;93.50
33460;DHT22;19795;53.160;6.612;2023-07-31T14:39:00;21.00;71.00
33460;DHT22;19795;53.160;6.612;2023-07-31T14:41:36;21.00;30.30
33460;DHT22;19795;53.160;6.612;2023-07-31T14:44:07;21.10;59.80
33460;DHT22;19795;53.160;6.612;2023-07-31T14:46:32;21.10;67.30
33460;DHT22;19795;53.160;6.612;2023-07-31T14:49:04;21.10;41.70
33460;DHT22;19795;53.160;6.612;2023-07-31T14:55:07;21.00;43.60
33460;DHT22;19795;53.160;6.612;2023-07-31T14:57:36;20.90;48.00
33460;DHT22;19795;53.160;6.612;2023-07-31T15:00:05;20.90;77.10
33460;DHT22;19795;53.160;6.612;2023-07-31T15:02:45;20.70;43.10
33460;DHT22;19795;53.160;6.612;2023-07-31T15:05:11;20.50;56.50
33460;DHT22;19795;53.160;6.612;2023-07-31T15:07:36;20.30;41.90
33460;DHT22;19795;53.160;6.612;2023-07-31T15:10:02;20.30;92.80
33460;DHT22;19795;53.160;6.612;2023-07-31T15:12:29;20.10;92.20
33460;DHT22;19795;53.160;6.612;2023-07-31T15:14:54;20.10;98.00
33460;DHT22;19795;53.160;6.612;2023-07-31T15:17:20;20.00;94.80
33460;DHT22;19795;53.160;6.612;2023-07-31T15:19:46;19.90;70.70
33460;DHT22;19795;53.160;6.612;2023-07-31T15:22:12;19.80;94.60
33460;DHT22;19795;53.160;6.612;2023-07-31T15:24:38;19.80;99.90
33460;DHT22;19795;53.160;6.612;2023-07-31T15:27:03;19.70;99.90
33460;DHT22;19795;53.160;6.612;2023-07-31T15:29:30;19.70;99.90
33460;DHT22;19795;53.160;6.612;2023-07-31T15:31:56;19.80;99.90
33460;DHT22;19795;53.160;6.612;2023-07-31T15:34:22;19.90;99.90
33460;DHT22;19795;53.160;6.612;2023-07-31T15:36:51;19.80;99.90
33460;DHT22;19795;53.160;6.612;2023-07-31T15:39:16;19.90;99.90
33460;DHT22;19795;53.160;6.612;2023-07-31T15:41:42;20.00;99.90
33460;DHT22;19795;53.160;6.612;2023-07-31T15:44:08;19.90;99.90
33460;DHT22;19795;53.160;6.612;2023-07-31T15:46:33;20.00;93.10
33460;DHT22;19795;53.160;6.612;2023-07-31T15:48:59;19.90;99.00
33460;DHT22;19795;53.160;6.612;2023-07-31T15:51:25;19.90;99.90
33460;DHT22;19795;53.160;6.612;2023-07-31T15:53:53;19.80;99.90
33460;DHT22;19795;53.160;6.612;2023-07-31T15:56:18;19.70;99.90
33460;DHT22;19795;53.160;6.612;2023-07-31T15:58:44;19.60;99.90
33460;DHT22;19795;53.160;6.612;2023-07-31T16:01:10;19.50;99.90
33460;DHT22;19795;53.160;6.612;2023-07-31T16:03:36;19.50;99.90
33460;DHT22;19795;53.160;6.612;2023-07-31T16:06:02;19.50;99.90
33460;DHT22;19795;53.160;6.612;2023-07-31T16:08:27;19.50;99.90
33460;DHT22;19795;53.160;6.612;2023-07-31T16:10:53;19.50;99.90
33460;DHT22;19795;53.160;6.612;2023-07-31T16:13:19;19.60;99.90
33460;DHT22;19795;53.160;6.612;2023-07-31T16:15:44;19.70;99.90
33460;DHT22;19795;53.160;6.612;2023-07-31T16:18:10;19.30;99.90
33460;DHT22;19795;53.160;6.612;2023-07-31T16:20:36;19.50;99.90
33460;DHT22;19795;53.160;6.612;2023-07-31T16:23:01;19.50;99.90
33460;DHT22;19795;53.160;6.612;2023-07-31T16:25:27;19.50;99.90
33460;DHT22;19795;53.160;6.612;2023-07-31T16:27:53;19.50;99.90
33460;DHT22;19795;53.160;6.612;2023-07-31T16:30:19;19.50;99.90
33460;DHT22;19795;53.160;6.612;2023-07-31T16:32:44;19.50;99.90
33460;DHT22;19795;53.160;6.612;2023-07-31T16:35:12;19.60;99.90
33460;DHT22;19795;53.160;6.612;2023-07-31T16:37:38;19.50;99.90
33460;DHT22;19795;53.160;6.612;2023-07-31T16:40:11;19.60;99.90
33460;DHT22;19795;53.160;6.612;2023-07-31T16:42:37;19.60;99.90
33460;DHT22;19795;53.160;6.612;2023-07-31T16:45:03;19.80;99.90
33460;DHT22;19795;53.160;6.612;2023-07-31T16:47:29;19.70;99.90
33460;DHT22;19795;53.160;6.612;2023-07-31T16:49:55;19.70;99.90
33460;DHT22;19795;53.160;6.612;2023-07-31T16:52:20;19.60;99.90
33460;DHT22;19795;53.160;6.612;2023-07-31T16:54:47;19.60;99.90
33460;DHT22;19795;53.160;6.612;2023-07-31T16:57:12;19.50;99.90
33460;DHT22;19795;53.160;6.612;2023-07-31T16:59:38;19.40;99.90
33460;DHT22;19795;53.160;6.612;2023-07-31T17:02:04;19.40;99.90
33460;DHT22;19795;53.160;6.612;2023-07-31T17:04:30;19.40;99.90
33460;DHT22;19795;53.160;6.612;2023-07-31T17:06:59;19.30;99.90
33460;DHT22;19795;53.160;6.612;2023-07-31T17:09:25;19.30;99.90
33460;DHT22;19795;53.160;6.612;2023-07-31T17:11:52;19.30;99.90
33460;DHT22;19795;53.160;6.612;2023-07-31T17:14:17;19.10;99.90
33460;DHT22;19795;53.160;6.612;2023-07-31T17:16:43;19.10;99.90
33460;DHT22;19795;53.160;6.612;2023-07-31T17:19:09;19.00;99.90
33460;DHT22;19795;53.160;6.612;2023-07-31T17:21:34;19.00;99.90
33460;DHT22;19795;53.160;6.612;2023-07-31T17:24:01;18.90;99.90
33460;DHT22;19795;53.160;6.612;2023-07-31T17:26:27;18.90;99.90
33460;DHT22;19795;53.160;6.612;2023-07-31T17:28:56;18.70;99.90
33460;DHT22;19795;53.160;6.612;2023-07-31T17:31:22;18.70;99.90
33460;DHT22;19795;53.160;6.612;2023-07-31T17:33:56;18.60;99.90
33460;DHT22;19795;53.160;6.612;2023-07-31T17:36:25;18.50;99.90
33460;DHT22;19795;53.160;6.612;2023-07-31T17:38:54;18.50;99.90
33460;DHT22;19795;53.160;6.612;2023-07-31T17:41:22;18.50;99.90
33460;DHT22;19795;53.160;6.612;2023-07-31T17:43:49;18.40;99.90
33460;DHT22;19795;53.160;6.612;2023-07-31T17:46:15;18.30;99.90
33460;DHT22;19795;53.160;6.612;2023-07-31T17:48:40;18.30;99.90
33460;DHT22;19795;53.160;6.612;2023-07-31T17:51:08;18.20;99.90
33460;DHT22;19795;53.160;6.612;2023-07-31T17:53:34;18.20;99.90
33460;DHT22;19795;53.160;6.612;2023-07-31T17:56:00;18.10;99.90
33460;DHT22;19795;53.160;6.612;2023-07-31T17:58:25;18.10;99.90
33460;DHT22;19795;53.160;6.612;2023-07-31T18:00:51;18.00;99.90
33460;DHT22;19795;53.160;6.612;2023-07-31T18:03:17;18.00;99.90
33460;DHT22;19795;53.160;6.612;2023-07-31T18:05:43;17.90;99.90
33460;DHT22;19795;53.160;6.612;2023-07-31T18:14:53;17.90;99.90
33460;DHT22;19795;53.160;6.612;2023-07-31T18:17:18;17.90;99.90
33460;DHT22;19795;53.160;6.612;2023-07-31T18:22:58;18.00;99.90
33460;DHT22;19795;53.160;6.612;2023-07-31T18:25:24;18.10;99.90
33460;DHT22;19795;53.160;6.612;2023-07-31T18:27:50;18.20;99.90
33460;DHT22;19795;53.160;6.612;2023-07-31T18:30:16;18.20;99.90
33460;DHT22;19795;53.160;6.612;2023-07-31T18:32:41;18.20;99.90
33460;DHT22;19795;53.160;6.612;2023-07-31T18:35:10;18.20;99.90
33460;DHT22;19795;53.160;6.612;2023-07-31T18:37:36;18.20;99.90
33460;DHT22;19795;53.160;6.612;2023-07-31T18:40:01;18.20;99.90
33460;DHT22;19795;53.160;6.612;2023-07-31T18:42:31;18.10;99.90
33460;DHT22;19795;53.160;6.612;2023-07-31T18:48:22;17.90;99.90
33460;DHT22;19795;53.160;6.612;2023-07-31T18:50:51;17.90;99.90
33460;DHT22;19795;53.160;6.612;2023-07-31T18:53:17;17.80;99.90
33460;DHT22;19795;53.160;6.612;2023-07-31T18:55:44;17.80;99.90
33460;DHT22;19795;53.160;6.612;2023-07-31T18:58:12;17.80;99.90
33460;DHT22;19795;53.160;6.612;2023-07-31T19:00:38;17.80;99.90
33460;DHT22;19795;53.160;6.612;2023-07-31T19:03:04;17.70;99.90
33460;DHT22;19795;53.160;6.612;2023-07-31T19:05:30;17.70;99.90
33460;DHT22;19795;53.160;6.612;2023-07-31T19:07:56;17.70;99.90
33460;DHT22;19795;53.160;6.612;2023-07-31T19:10:24;17.80;99.90
33460;DHT22;19795;53.160;6.612;2023-07-31T19:12:50;17.60;99.90
33460;DHT22;19795;53.160;6.612;2023-07-31T19:15:16;17.60;99.90
33460;DHT22;19795;53.160;6.612;2023-07-31T19:17:46;17.60;99.90
33460;DHT22;19795;53.160;6.612;2023-07-31T19:20:12;17.60;99.90
33460;DHT22;19795;53.160;6.612;2023-07-31T19:22:41;17.60;99.90
33460;DHT22;19795;53.160;6.612;2023-07-31T19:25:07;17.60;99.90
33460;DHT22;19795;53.160;6.612;2023-07-31T19:27:33;17.50;99.90
33460;DHT22;19795;53.160;6.612;2023-07-31T19:29:58;17.60;99.90
33460;DHT22;19795;53.160;6.612;2023-07-31T19:32:24;17.60;99.90
33460;DHT22;19795;53.160;6.612;2023-07-31T19:34:50;17.60;99.90
33460;DHT22;19795;53.160;6.612;2023-07-31T19:37:16;17.60;99.90
33460;DHT22;19795;53.160;6.612;2023-07-31T19:42:19;17.50;99.90
33460;DHT22;19795;53.160;6.612;2023-07-31T19:44:44;17.60;99.90
33460;DHT22;19795;53.160;6.612;2023-07-31T19:47:10;17.50;99.90
33460;DHT22;19795;53.160;6.612;2023-07-31T19:49:36;17.60;99.90
33460;DHT22;19795;53.160;6.612;2023-07-31T19:52:02;17.60;99.90
33460;DHT22;19795;53.160;6.612;2023-07-31T19:54:27;17.50;99.90
33460;DHT22;19795;53.160;6.612;2023-07-31T19:56:54;17.50;99.90
33460;DHT22;19795;53.160;6.612;2023-07-31T19:59:19;17.50;99.90
33460;DHT22;19795;53.160;6.612;2023-07-31T20:01:45;17.50;99.90
33460;DHT22;19795;53.160;6.612;2023-07-31T20:04:11;17.50;99.90
33460;DHT22;19795;53.160;6.612;2023-07-31T20:06:36;17.50;99.90
33460;DHT22;19795;53.160;6.612;2023-07-31T20:09:02;17.50;99.90
33460;DHT22;19795;53.160;6.612;2023-07-31T20:11:31;17.50;99.90
33460;DHT22;19795;53.160;6.612;2023-07-31T20:13:57;17.50;99.90
33460;DHT22;19795;53.160;6.612;2023-07-31T20:16:22;17.50;99.90
33460;DHT22;19795;53.160;6.612;2023-07-31T20:18:48;17.50;99.90
33460;DHT22;19795;53.160;6.612;2023-07-31T20:21:14;17.40;99.90
33460;DHT22;19795;53.160;6.612;2023-07-31T20:23:41;17.40;99.90
33460;DHT22;19795;53.160;6.612;2023-07-31T20:26:07;17.40;99.90
33460;DHT22;19795;53.160;6.612;2023-07-31T20:28:33;17.30;99.90
33460;DHT22;19795;53.160;6.612;2023-07-31T20:31:22;17.30;99.90